Time;durP1;ratioP1;P1;durP2;ratioP2;P2;SDS_P1;SDS_P2;PMS_P1;PMS_P2;Temp;Humidity;BMP_temperature;BMP_pressure;BME280_temperature;BME280_humidity;BME280_pressure;Samples;Min_cycle;Max_cycle;Signal;HPM_P1;HPM_P2
2023/12/14 00:01:55;;;;;;;17.40;8.60;;;;;;;-2.07;100.00;101039.50;105978;1252;61647;-77
2023/12/14 00:04:22;;;;;;;17.70;9.50;;;;;;;-2.11;100.00;101033.33;106167;1253;59547;-75
2023/12/14 00:06:50;;;;;;;19.20;9.30;;;;;;;-2.12;100.00;101021.69;106173;1248;73223;-75
2023/12/14 00:09:16;;;;;;;23.20;10.40;;;;;;;-2.14;100.00;101023.91;106144;1253;63517;-75
2023/12/14 00:11:43;;;;;;;24.20;10.80;;;;;;;-2.15;100.00;101026.15;106236;1254;71498;-74
2023/12/14 00:14:11;;;;;;;16.20;10.20;;;;;;;-2.14;100.00;101022.05;106269;1248;60634;-76
2023/12/14 00:16:37;;;;;;;17.70;9.80;;;;;;;-2.16;100.00;101018.95;106217;1253;59621;-77
2023/12/14 00:19:05;;;;;;;16.90;10.80;;;;;;;-2.22;100.00;101020.50;106295;1248;72905;-76
2023/12/14 00:21:31;;;;;;;18.60;9.90;;;;;;;-2.25;100.00;101017.94;106261;1248;62525;-76
2023/12/14 00:23:58;;;;;;;18.10;8.80;;;;;;;-2.26;100.00;101013.48;106220;1248;71255;-76
2023/12/14 00:26:25;;;;;;;16.50;9.40;;;;;;;-2.26;100.00;101010.41;105988;1251;60563;-75
2023/12/14 00:28:52;;;;;;;23.60;12.60;;;;;;;-2.25;100.00;101015.70;106332;1249;59544;-74
2023/12/14 00:31:28;;;;;;;20.20;10.40;;;;;;;-2.25;100.00;101015.72;106201;1252;72975;-74
2023/12/14 00:33:55;;;;;;;20.40;10.70;;;;;;;-2.25;100.00;101015.88;106269;1253;63642;-75
2023/12/14 00:36:22;;;;;;;22.10;10.60;;;;;;;-2.22;100.00;101016.91;106093;1254;72634;-73
2023/12/14 00:38:49;;;;;;;20.10;11.90;;;;;;;-2.19;100.00;101019.64;106260;1254;61939;-76
2023/12/14 00:41:16;;;;;;;26.40;12.40;;;;;;;-2.19;100.00;101016.73;106235;1253;59628;-76
2023/12/14 00:43:43;;;;;;;16.80;9.70;;;;;;;-2.20;100.00;101023.77;106177;1248;72880;-75
2023/12/14 00:46:12;;;;;;;14.50;10.20;;;;;;;-2.20;100.00;101029.23;106232;1252;63846;-76
2023/12/14 00:48:39;;;;;;;25.90;12.60;;;;;;;-2.20;100.00;101025.65;106263;1253;73387;-76
2023/12/14 00:51:06;;;;;;;17.60;10.30;;;;;;;-2.20;100.00;101016.73;106264;1253;61880;-76
2023/12/14 00:53:32;;;;;;;19.60;10.50;;;;;;;-2.20;100.00;101025.65;106238;1248;60849;-75
2023/12/14 00:55:59;;;;;;;26.30;10.70;;;;;;;-2.20;100.00;101031.46;106195;1249;73038;-78
2023/12/14 00:58:26;;;;;;;17.50;8.50;;;;;;;-2.19;100.00;101037.12;106075;1254;63851;-77
2023/12/14 01:00:54;;;;;;;18.50;8.90;;;;;;;-2.15;100.00;101039.34;106027;1252;72071;-76
2023/12/14 01:03:21;;;;;;;21.00;8.20;;;;;;;-2.13;100.00;101034.71;106047;1253;61722;-76
2023/12/14 01:05:48;;;;;;;19.00;9.40;;;;;;;-2.10;100.00;101027.00;106050;1251;60261;-76
2023/12/14 01:08:15;;;;;;;16.90;10.20;;;;;;;-2.10;100.00;101016.55;106252;1253;71827;-75
2023/12/14 01:10:43;;;;;;;19.90;9.60;;;;;;;-2.10;100.00;101005.76;106447;1253;63893;-75
2023/12/14 01:13:10;;;;;;;12.10;7.50;;;;;;;-2.10;100.00;100992.73;106471;1248;71129;-75
2023/12/14 01:15:37;;;;;;;18.10;8.90;;;;;;;-2.12;100.00;100989.66;106263;1253;60632;-76
2023/12/14 01:18:04;;;;;;;13.70;7.80;;;;;;;-2.14;100.00;100988.98;106238;1248;60355;-74
2023/12/14 01:20:31;;;;;;;25.80;9.70;;;;;;;-2.14;100.00;100992.07;105955;1255;73062;-76
2023/12/14 01:22:58;;;;;;;15.00;8.80;;;;;;;-2.16;100.00;100995.15;106246;1254;63901;-78
2023/12/14 01:25:25;;;;;;;14.20;9.70;;;;;;;-2.19;100.00;100990.70;106288;1247;71400;-74
2023/12/14 01:27:52;;;;;;;13.40;7.70;;;;;;;-2.19;100.00;100983.86;106250;1251;60366;-77
2023/12/14 01:30:20;;;;;;;14.10;7.90;;;;;;;-2.20;100.00;100989.34;106256;1253;59794;-77
2023/12/14 01:32:47;;;;;;;11.90;7.40;;;;;;;-2.20;100.00;100984.38;105980;1254;72996;-76
2023/12/14 01:35:15;;;;;;;12.90;9.70;;;;;;;-2.17;100.00;100997.03;106210;1248;62706;-77
2023/12/14 01:37:42;;;;;;;18.00;10.00;;;;;;;-2.14;100.00;101016.21;106314;1254;71668;-74
2023/12/14 01:40:09;;;;;;;16.80;8.80;;;;;;;-2.13;100.00;101022.55;106670;1249;59859;-73
2023/12/14 01:42:36;;;;;;;16.00;9.10;;;;;;;-2.14;100.00;101018.62;106275;1253;59611;-75
2023/12/14 01:45:05;;;;;;;18.90;9.80;;;;;;;-2.17;100.00;101028.38;106205;1248;71531;-74
2023/12/14 01:47:33;;;;;;;12.80;8.20;;;;;;;-2.19;100.00;101022.56;106426;1253;63705;-74
2023/12/14 01:50:00;;;;;;;17.60;10.00;;;;;;;-2.18;100.00;101019.14;106459;1251;72601;-75
2023/12/14 01:52:27;;;;;;;14.50;7.40;;;;;;;-2.13;100.00;101016.05;106207;1253;61750;-76
2023/12/14 01:54:55;;;;;;;13.30;7.00;;;;;;;-2.09;100.00;100999.41;106241;1248;60019;-76
2023/12/14 01:57:22;;;;;;;13.70;6.90;;;;;;;-2.06;100.00;101007.30;106322;1248;71640;-74
2023/12/14 01:59:49;;;;;;;13.00;8.00;;;;;;;-2.04;100.00;100994.96;106170;1252;63973;-76
2023/12/14 02:02:16;;;;;;;15.50;8.30;;;;;;;-2.04;100.00;100988.80;106206;1252;71081;-76
2023/12/14 02:04:44;;;;;;;16.50;7.10;;;;;;;-2.03;100.00;100980.39;106315;1252;61764;-74
2023/12/14 02:07:11;;;;;;;17.70;7.00;;;;;;;-2.03;100.00;100981.08;106481;1254;60351;-74
2023/12/14 02:09:39;;;;;;;12.30;7.00;;;;;;;-2.04;100.00;100977.48;106036;1248;71577;-76
2023/12/14 02:12:06;;;;;;;15.20;7.80;;;;;;;-2.06;100.00;100975.60;106266;1252;63713;-75
2023/12/14 02:14:33;;;;;;;12.60;7.30;;;;;;;-2.08;100.00;100974.23;106288;1248;72656;-74
2023/12/14 02:17:00;;;;;;;12.80;6.50;;;;;;;-2.12;100.00;100979.21;106217;1248;61952;-75
2023/12/14 02:19:27;;;;;;;16.00;7.50;;;;;;;-2.15;100.00;100976.14;106287;1254;60032;-75
2023/12/14 02:21:54;;;;;;;10.20;6.70;;;;;;;-2.19;100.00;100972.04;106181;1253;73141;-77
2023/12/14 02:24:25;;;;;;;15.20;8.10;;;;;;;-2.21;100.00;100958.84;106307;1253;63869;-76
2023/12/14 02:26:52;;;;;;;15.90;7.90;;;;;;;-2.21;100.00;100955.77;106261;1253;72596;-75
2023/12/14 02:29:30;;;;;;;18.40;8.40;;;;;;;-2.20;100.00;100961.42;106399;1248;62036;-75
2023/12/14 02:31:58;;;;;;;18.60;7.90;;;;;;;-2.20;100.00;100965.52;106235;1249;59568;-77
2023/12/14 02:34:27;;;;;;;18.40;9.20;;;;;;;-2.20;100.00;100973.41;106184;1254;72122;-77
2023/12/14 02:36:54;;;;;;;9.70;6.40;;;;;;;-2.18;100.00;100979.56;106494;1253;63578;-76
2023/12/14 02:39:21;;;;;;;14.90;6.30;;;;;;;-2.16;100.00;100964.49;106016;1248;70193;-77
2023/12/14 02:41:48;;;;;;;13.10;7.30;;;;;;;-2.15;100.00;100962.44;106209;1251;62027;-77
2023/12/14 02:44:16;;;;;;;13.80;7.10;;;;;;;-2.15;100.00;100954.91;106276;1248;60293;-76
2023/12/14 02:46:43;;;;;;;16.00;8.10;;;;;;;-2.12;100.00;100950.27;106230;1253;72875;-75
2023/12/14 02:49:10;;;;;;;10.70;7.60;;;;;;;-2.11;100.00;100945.83;109015;1247;62247;-74
2023/12/14 02:51:38;;;;;;;16.00;8.00;;;;;;;-2.10;100.00;100935.36;108103;1253;71156;-76
2023/12/14 02:54:05;;;;;;;14.40;7.60;;;;;;;-2.09;100.00;100923.88;106031;1251;60542;-76
2023/12/14 02:56:35;;;;;;;10.10;7.10;;;;;;;-2.08;100.00;100924.39;106295;1248;60332;-76
2023/12/14 02:59:02;;;;;;;11.50;6.70;;;;;;;-2.06;100.00;100925.59;106225;1252;73838;-77
2023/12/14 03:01:29;;;;;;;10.10;7.10;;;;;;;-2.11;100.00;100915.66;106255;1254;63855;-77
2023/12/14 03:03:57;;;;;;;8.40;6.60;;;;;;;-2.12;100.00;100911.90;106200;1252;70160;-77
2023/12/14 03:06:24;;;;;;;13.20;7.70;;;;;;;-2.13;100.00;100910.20;106305;1253;61976;-76
2023/12/14 03:08:54;;;;;;;13.30;7.10;;;;;;;-2.14;100.00;100909.34;106339;1252;60340;-75
2023/12/14 03:11:23;;;;;;;15.60;7.90;;;;;;;-2.17;100.00;100902.50;106255;1248;74480;-77
2023/12/14 03:13:50;;;;;;;14.40;8.70;;;;;;;-2.19;100.00;100899.25;106245;1253;62460;-76
2023/12/14 03:16:18;;;;;;;20.90;10.10;;;;;;;-2.20;100.00;100900.63;106358;1248;72623;-77
2023/12/14 03:18:45;;;;;;;18.40;9.30;;;;;;;-2.19;100.00;100894.13;106401;1253;60460;-76
2023/12/14 03:21:13;;;;;;;16.50;10.10;;;;;;;-2.20;100.00;100891.89;106240;1248;60626;-75
2023/12/14 03:23:40;;;;;;;18.10;10.40;;;;;;;-2.22;100.00;100891.55;106078;1248;72352;-73
2023/12/14 03:26:07;;;;;;;24.90;11.10;;;;;;;-2.26;100.00;100886.44;106275;1248;63838;-76
2023/12/14 03:28:34;;;;;;;20.30;11.90;;;;;;;-2.30;100.00;100873.25;106281;1252;73314;-74
2023/12/14 03:31:01;;;;;;;17.10;10.50;;;;;;;-2.33;100.00;100868.99;106274;1247;61730;-77
2023/12/14 03:33:29;;;;;;;18.70;11.50;;;;;;;-2.35;100.00;100865.58;106275;1248;60444;-76
2023/12/14 03:35:56;;;;;;;20.90;10.50;;;;;;;-2.36;100.00;100876.52;106149;1247;73461;-77
2023/12/14 03:38:23;;;;;;;16.20;10.60;;;;;;;-2.34;100.00;100890.39;106317;1253;62418;-75
2023/12/14 03:40:49;;;;;;;23.60;10.90;;;;;;;-2.35;100.00;100898.27;106216;1247;72487;-76
2023/12/14 03:43:16;;;;;;;19.40;10.10;;;;;;;-2.36;100.00;100894.50;106218;1254;60536;-76
2023/12/14 03:45:43;;;;;;;16.20;9.30;;;;;;;-2.39;100.00;100892.80;106245;1247;60421;-77
2023/12/14 03:48:11;;;;;;;18.10;11.00;;;;;;;-2.39;100.00;100882.70;106074;1247;73827;-75
2023/12/14 03:50:38;;;;;;;17.90;9.90;;;;;;;-2.40;100.00;100876.19;106070;1252;63811;-76
2023/12/14 03:53:05;;;;;;;20.70;9.90;;;;;;;-2.44;100.00;100874.83;106095;1248;71224;-76
2023/12/14 03:55:32;;;;;;;15.90;9.90;;;;;;;-2.46;100.00;100883.07;106114;1248;60925;-74
2023/12/14 03:57:59;;;;;;;19.20;9.40;;;;;;;-2.46;100.00;100885.12;106291;1248;60433;-75
2023/12/14 04:00:26;;;;;;;17.00;10.20;;;;;;;-2.46;100.00;100892.98;106163;1248;72300;-77
2023/12/14 04:02:53;;;;;;;16.40;10.00;;;;;;;-2.46;100.00;100887.17;106151;1253;63873;-74
2023/12/14 04:05:22;;;;;;;14.60;9.90;;;;;;;-2.46;100.00;100876.90;106156;1247;72464;-76
2023/12/14 04:07:49;;;;;;;16.40;10.30;;;;;;;-2.46;100.00;100867.65;106209;1253;61867;-75
2023/12/14 04:10:17;;;;;;;16.50;10.50;;;;;;;-2.46;100.00;100864.41;106222;1252;60428;-75
2023/12/14 04:12:44;;;;;;;16.60;8.80;;;;;;;-2.46;100.00;100883.40;106314;1254;73863;-75
2023/12/14 04:15:11;;;;;;;17.40;9.90;;;;;;;-2.48;100.00;100877.58;106268;1247;62299;-75
2023/12/14 04:17:40;;;;;;;24.40;10.70;;;;;;;-2.49;100.00;100872.11;106094;1251;70957;-73
2023/12/14 04:20:08;;;;;;;20.10;12.20;;;;;;;-2.46;100.00;100859.61;106211;1254;60580;-75
2023/12/14 04:22:35;;;;;;;20.20;11.00;;;;;;;-2.45;100.00;100859.09;106309;1248;60423;-76
2023/12/14 04:25:02;;;;;;;18.30;9.60;;;;;;;-2.43;100.00;100866.27;106193;1253;72814;-75
2023/12/14 04:27:30;;;;;;;17.60;9.50;;;;;;;-2.43;100.00;100869.52;106213;1252;63733;-75
2023/12/14 04:29:57;;;;;;;22.10;10.80;;;;;;;-2.45;100.00;100861.32;106111;1248;71451;-76
2023/12/14 04:32:23;;;;;;;24.40;12.10;;;;;;;-2.45;100.00;100858.23;105913;1254;60450;-74
2023/12/14 04:34:51;;;;;;;22.40;12.30;;;;;;;-2.43;100.00;100855.15;106230;1248;60456;-77
2023/12/14 04:37:19;;;;;;;23.00;11.40;;;;;;;-2.43;100.00;100858.06;106131;1248;73777;-77
2023/12/14 04:39:46;;;;;;;21.10;11.20;;;;;;;-2.43;100.00;100858.05;106181;1253;62329;-75
2023/12/14 04:42:13;;;;;;;18.50;12.60;;;;;;;-2.43;100.00;100858.92;106137;1248;72574;-74
2023/12/14 04:44:40;;;;;;;26.30;11.70;;;;;;;-2.42;100.00;100860.27;106180;1253;61010;-75
2023/12/14 04:47:08;;;;;;;21.40;12.10;;;;;;;-2.41;100.00;100864.55;106128;1253;60533;-73
2023/12/14 04:49:35;;;;;;;24.10;12.40;;;;;;;-2.42;100.00;100856.34;106195;1248;73950;-74
2023/12/14 04:52:02;;;;;;;20.90;11.60;;;;;;;-2.39;100.00;100849.48;106008;1251;62336;-76
2023/12/14 04:54:29;;;;;;;20.90;10.90;;;;;;;-2.38;100.00;100847.27;106255;1251;74212;-75
2023/12/14 04:56:56;;;;;;;19.90;13.00;;;;;;;-2.39;100.00;100844.52;106169;1248;61874;-75
2023/12/14 04:59:23;;;;;;;29.60;12.90;;;;;;;-2.42;100.00;100832.89;106339;1247;60530;-74
2023/12/14 05:01:50;;;;;;;22.30;11.10;;;;;;;-2.43;100.00;100829.13;106215;1253;73956;-75
2023/12/14 05:04:17;;;;;;;27.50;14.00;;;;;;;-2.45;100.00;100840.95;106317;1248;62342;-77
2023/12/14 05:06:44;;;;;;;19.50;10.80;;;;;;;-2.46;100.00;100837.54;106121;1254;71092;-75
2023/12/14 05:09:11;;;;;;;16.40;10.70;;;;;;;-2.47;100.00;100836.49;106246;1248;61656;-77
2023/12/14 05:11:41;;;;;;;18.30;9.70;;;;;;;-2.47;100.00;100841.13;106173;1248;60434;-74
2023/12/14 05:14:08;;;;;;;19.20;10.60;;;;;;;-2.47;100.00;100837.69;106153;1248;72377;-75
2023/12/14 05:16:35;;;;;;;24.70;12.30;;;;;;;-2.46;100.00;100838.55;106270;1253;63863;-76
2023/12/14 05:19:02;;;;;;;17.60;9.90;;;;;;;-2.45;100.00;100839.23;106114;1248;72507;-75
2023/12/14 05:21:29;;;;;;;22.40;11.00;;;;;;;-2.43;100.00;100833.58;106166;1253;61964;-75
2023/12/14 05:23:58;;;;;;;16.90;9.60;;;;;;;-2.38;100.00;100833.90;106193;1248;60338;-76
2023/12/14 05:26:26;;;;;;;13.50;9.00;;;;;;;-2.34;100.00;100831.15;106143;1254;73914;-75
2023/12/14 05:28:53;;;;;;;17.80;9.70;;;;;;;-2.33;100.00;100822.77;106162;1249;62376;-75
2023/12/14 05:31:20;;;;;;;17.60;9.10;;;;;;;-2.35;100.00;100825.85;106202;1253;72737;-76
2023/12/14 05:33:49;;;;;;;21.60;10.20;;;;;;;-2.36;100.00;100828.76;106354;1248;61744;-72
2023/12/14 05:36:17;;;;;;;15.30;9.40;;;;;;;-2.37;100.00;100836.13;106285;1247;60446;-76
2023/12/14 05:38:44;;;;;;;22.20;10.20;;;;;;;-2.40;100.00;100832.03;106687;1251;73819;-75
2023/12/14 05:41:11;;;;;;;23.00;12.10;;;;;;;-2.39;100.00;100833.91;106162;1254;63627;-77
2023/12/14 05:43:38;;;;;;;19.30;10.00;;;;;;;-2.33;100.00;100838.16;108967;1247;71117;-73
2023/12/14 05:46:05;;;;;;;16.70;8.90;;;;;;;-2.26;100.00;100839.34;108331;1251;60538;-75
2023/12/14 05:48:32;;;;;;;18.70;9.50;;;;;;;-2.26;100.00;100837.63;106085;1248;60504;-76
2023/12/14 05:51:00;;;;;;;23.80;9.70;;;;;;;-2.26;100.00;100834.36;106213;1248;73989;-74
2023/12/14 05:53:27;;;;;;;12.50;8.10;;;;;;;-2.29;100.00;100829.41;106261;1254;63899;-73
2023/12/14 05:55:54;;;;;;;15.40;11.10;;;;;;;-2.32;100.00;100823.09;106108;1254;71960;-74
2023/12/14 05:58:21;;;;;;;18.00;9.30;;;;;;;-2.33;100.00;100816.59;106328;1248;61875;-74
2023/12/14 06:00:49;;;;;;;17.70;9.00;;;;;;;-2.36;100.00;100810.44;106271;1248;61790;-74
2023/12/14 06:03:16;;;;;;;23.90;10.00;;;;;;;-2.36;100.00;100811.12;106261;1247;73761;-75
2023/12/14 06:05:43;;;;;;;16.90;9.50;;;;;;;-2.35;100.00;100804.79;106158;1252;63790;-75
2023/12/14 06:08:10;;;;;;;17.50;8.50;;;;;;;-2.31;100.00;100806.82;106268;1248;72561;-75
2023/12/14 06:10:39;;;;;;;22.90;10.20;;;;;;;-2.29;100.00;100802.37;106223;1249;60542;-75
2023/12/14 06:13:09;;;;;;;18.50;9.90;;;;;;;-2.27;100.00;100797.73;106248;1253;60430;-76
2023/12/14 06:15:36;;;;;;;18.90;10.00;;;;;;;-2.26;100.00;100796.19;106218;1248;73779;-77
2023/12/14 06:18:05;;;;;;;20.00;9.80;;;;;;;-2.26;100.00;100794.48;106187;1248;64029;-77
2023/12/14 06:20:35;;;;;;;18.80;9.40;;;;;;;-2.26;100.00;100804.41;105942;1254;70284;-77
2023/12/14 06:23:02;;;;;;;17.00;8.50;;;;;;;-2.24;100.00;100803.39;106168;1252;62006;-77
2023/12/14 06:25:29;;;;;;;16.00;10.10;;;;;;;-2.22;100.00;100809.88;106204;1248;60533;-80
2023/12/14 06:27:56;;;;;;;13.60;8.70;;;;;;;-2.19;100.00;100818.25;106258;1248;72312;-77
2023/12/14 06:30:24;;;;;;;22.10;9.90;;;;;;;-2.16;100.00;100818.73;106028;1248;62099;-77
2023/12/14 06:32:51;;;;;;;18.10;11.00;;;;;;;-2.12;100.00;100816.16;106175;1248;72458;-79
2023/12/14 06:35:19;;;;;;;21.00;11.20;;;;;;;-2.08;100.00;100808.43;106159;1253;61767;-77
2023/12/14 06:37:46;;;;;;;15.20;9.10;;;;;;;-2.05;100.00;100802.08;106207;1247;60535;-76
2023/12/14 06:40:12;;;;;;;26.50;11.60;;;;;;;-2.03;100.00;100787.69;106056;1248;73855;-78
2023/12/14 06:42:39;;;;;;;26.00;10.70;;;;;;;-2.01;100.00;100782.36;106126;1248;61492;-78
2023/12/14 06:45:07;;;;;;;19.50;11.30;;;;;;;-1.99;100.00;100781.14;106091;1248;71763;-77
2023/12/14 06:47:35;;;;;;;22.00;10.50;;;;;;;-1.97;100.00;100784.39;106164;1248;60710;-76
2023/12/14 06:50:02;;;;;;;17.90;10.00;;;;;;;-1.95;100.00;100783.35;106278;1248;60488;-78
2023/12/14 06:52:29;;;;;;;16.30;9.20;;;;;;;-1.95;100.00;100786.77;106146;1248;73813;-78
2023/12/14 06:54:56;;;;;;;18.60;10.20;;;;;;;-1.94;100.00;100770.49;106119;1250;61409;-78
2023/12/14 06:57:24;;;;;;;20.80;12.60;;;;;;;-1.93;100.00;100777.34;106102;1248;72616;-79
2023/12/14 06:59:54;;;;;;;14.80;9.50;;;;;;;-1.91;100.00;100777.84;105941;1254;61744;-78
2023/12/14 07:02:21;;;;;;;18.50;9.90;;;;;;;-1.86;100.00;100781.23;106167;1248;60504;-78
2023/12/14 07:04:47;;;;;;;17.80;10.50;;;;;;;-1.82;100.00;100782.25;106195;1248;74383;-78
2023/12/14 07:07:15;;;;;;;19.00;10.20;;;;;;;-1.80;100.00;100789.60;106141;1253;63603;-78
2023/12/14 07:09:43;;;;;;;17.70;10.60;;;;;;;-1.76;100.00;100785.64;106105;1253;72622;-78
2023/12/14 07:12:11;;;;;;;17.70;10.90;;;;;;;-1.70;100.00;100779.60;106057;1253;60900;-78
2023/12/14 07:14:39;;;;;;;16.40;10.70;;;;;;;-1.67;100.00;100770.83;106144;1252;60376;-78
2023/12/14 07:17:09;;;;;;;23.00;11.70;;;;;;;-1.62;100.00;100780.23;106195;1248;72838;-78
2023/12/14 07:19:36;;;;;;;17.70;10.60;;;;;;;-1.58;100.00;100787.39;106425;1252;63610;-77
2023/12/14 07:22:03;;;;;;;18.10;11.80;;;;;;;-1.56;100.00;100785.49;106293;1248;72397;-77
2023/12/14 07:24:30;;;;;;;19.80;11.50;;;;;;;-1.56;100.00;100788.23;106202;1247;61838;-76
2023/12/14 07:27:11;;;;;;;21.40;11.50;;;;;;;-1.55;100.00;100788.23;106196;1248;60470;-75
2023/12/14 07:29:38;;;;;;;23.80;12.80;;;;;;;-1.55;100.00;100785.66;106225;1249;73786;-78
2023/12/14 07:32:05;;;;;;;21.60;10.80;;;;;;;-1.54;100.00;100780.67;106202;1252;63858;-79
2023/12/14 07:34:32;;;;;;;19.40;12.40;;;;;;;-1.52;100.00;100773.46;106106;1254;72860;-78
2023/12/14 07:37:00;;;;;;;24.70;12.70;;;;;;;-1.49;100.00;100775.83;106053;1254;61193;-77
2023/12/14 07:39:27;;;;;;;25.60;13.80;;;;;;;-1.47;100.00;100783.53;106175;1253;60434;-78
2023/12/14 07:41:54;;;;;;;23.80;15.20;;;;;;;-1.42;100.00;100787.45;106127;1247;72215;-79
2023/12/14 07:44:21;;;;;;;41.60;24.50;;;;;;;-1.36;100.00;100782.25;106236;1253;63886;-76
2023/12/14 07:46:49;;;;;;;25.50;14.40;;;;;;;-1.31;100.00;100781.69;106237;1249;71213;-77
2023/12/14 07:49:20;;;;;;;23.60;12.20;;;;;;;-1.27;100.00;100781.65;105916;1254;60921;-76
2023/12/14 07:51:47;;;;;;;26.70;13.70;;;;;;;-1.23;100.00;100791.40;105991;1248;60468;-77
2023/12/14 07:54:14;;;;;;;17.60;11.00;;;;;;;-1.19;100.00;100794.96;106178;1248;73975;-78
2023/12/14 07:59:20;;;;;;;21.70;12.80;;;;;;;-1.08;100.00;100799.48;102694;1293;603778;-78
2023/12/14 08:01:50;;;;;;;24.00;13.40;;;;;;;-1.07;100.00;100794.50;105225;1265;59712;-77
2023/12/14 08:04:17;;;;;;;18.80;10.90;;;;;;;-1.03;100.00;100800.48;105643;1255;60407;-78
2023/12/14 08:06:44;;;;;;;18.10;12.10;;;;;;;-0.98;100.00;100805.58;105740;1258;72533;-78
2023/12/14 08:09:12;;;;;;;20.30;11.90;;;;;;;-0.93;100.00;100801.23;105610;1260;63900;-78
2023/12/14 08:11:39;;;;;;;22.40;12.80;;;;;;;-0.87;100.00;100790.71;105434;1260;203513;-77
2023/12/14 08:14:07;;;;;;;21.50;12.40;;;;;;;-0.84;100.00;100783.80;105914;1257;61213;-78
2023/12/14 08:16:34;;;;;;;20.60;10.90;;;;;;;-0.80;100.00;100781.72;105957;1257;60398;-77
2023/12/14 08:19:01;;;;;;;19.20;11.40;;;;;;;-0.81;100.00;100764.73;105913;1255;72322;-77
2023/12/14 08:21:28;;;;;;;15.70;10.20;;;;;;;-0.82;100.00;100756.33;105951;1252;63697;-78
2023/12/14 08:23:55;;;;;;;20.80;11.60;;;;;;;-0.82;100.00;100757.54;106004;1257;72276;-76
2023/12/14 08:26:23;;;;;;;20.10;10.70;;;;;;;-0.80;100.00;100750.81;105670;1259;61117;-78
2023/12/14 08:28:50;;;;;;;18.20;11.20;;;;;;;-0.80;100.00;100752.71;105753;1258;59742;-76
2023/12/14 08:31:17;;;;;;;20.90;12.70;;;;;;;-0.79;100.00;100737.43;105838;1257;71282;-77
2023/12/14 08:33:45;;;;;;;16.20;10.30;;;;;;;-0.79;100.00;100729.35;105844;1259;63944;-78
2023/12/14 08:36:17;;;;;;;15.00;9.10;;;;;;;-0.76;100.00;100725.38;105759;1256;72590;-76
2023/12/14 08:38:45;;;;;;;14.80;10.00;;;;;;;-0.75;100.00;100719.85;105854;1257;60284;-75
2023/12/14 08:41:14;;;;;;;13.70;9.20;;;;;;;-0.73;100.00;100711.44;105718;1254;60292;-78
2023/12/14 08:43:42;;;;;;;18.20;11.10;;;;;;;-0.72;100.00;100707.80;105304;1262;70873;-77
2023/12/14 08:46:10;;;;;;;13.10;7.80;;;;;;;-0.67;100.00;100696.95;105824;1257;63981;-76
2023/12/14 08:48:37;;;;;;;12.30;7.20;;;;;;;-0.63;100.00;100690.70;105421;1262;72728;-78
2023/12/14 08:51:05;;;;;;;13.40;8.20;;;;;;;-0.59;100.00;100690.48;105632;1260;61174;-76
2023/12/14 08:53:33;;;;;;;11.80;7.40;;;;;;;-0.57;100.00;100682.39;105892;1254;60252;-76
2023/12/14 08:56:02;;;;;;;13.50;7.50;;;;;;;-0.52;100.00;100680.43;105828;1254;72747;-78
2023/12/14 08:58:29;;;;;;;12.10;8.60;;;;;;;-0.48;100.00;100677.11;105803;1258;63704;-75
2023/12/14 09:00:56;;;;;;;9.50;7.50;;;;;;;-0.44;100.00;100671.55;105842;1257;72611;-75
2023/12/14 09:03:26;;;;;;;14.90;10.30;;;;;;;-0.38;100.00;100671.98;105792;1258;61067;-76
2023/12/14 09:05:53;;;;;;;10.50;7.50;;;;;;;-0.32;100.00;100671.41;105788;1257;59707;-77
2023/12/14 09:08:20;;;;;;;13.70;9.50;;;;;;;-0.26;100.00;100666.84;105785;1257;73060;-78
2023/12/14 09:10:47;;;;;;;14.80;8.70;;;;;;;-0.22;100.00;100661.45;105743;1254;63879;-78
2023/12/14 09:13:14;;;;;;;10.50;7.70;;;;;;;-0.21;100.00;100651.13;105802;1254;73071;-77
2023/12/14 09:15:41;;;;;;;15.30;7.70;;;;;;;-0.18;100.00;100644.91;105836;1257;61443;-77
2023/12/14 09:18:07;;;;;;;9.90;7.10;;;;;;;-0.17;100.00;100642.31;105866;1254;61489;-76
2023/12/14 09:20:37;;;;;;;9.00;6.60;;;;;;;-0.15;100.00;100638.50;105684;1257;74136;-78
2023/12/14 09:23:06;;;;;;;15.30;7.70;;;;;;;-0.12;100.00;100637.08;105731;1257;64696;-77
2023/12/14 09:25:33;;;;;;;17.30;12.10;;;;;;;-0.11;100.00;100629.50;105672;1257;72700;-76
2023/12/14 09:28:00;;;;;;;14.00;9.80;;;;;;;-0.09;100.00;100630.16;105968;1254;59839;-77
2023/12/14 09:30:27;;;;;;;12.30;8.00;;;;;;;-0.07;100.00;100625.84;105720;1254;60208;-77
2023/12/14 09:32:56;;;;;;;12.50;8.80;;;;;;;-0.06;100.00;100608.28;105708;1254;72088;-76
2023/12/14 09:35:24;;;;;;;12.80;8.60;;;;;;;-0.03;100.00;100610.30;105903;1257;62268;-77
2023/12/14 09:37:51;;;;;;;13.00;7.40;;;;;;;0.02;100.00;100608.85;105682;1255;70979;-77
2023/12/14 09:40:19;;;;;;;11.60;7.40;;;;;;;0.05;100.00;100600.21;105823;1255;60941;-77
2023/12/14 09:42:46;;;;;;;10.80;7.10;;;;;;;0.08;100.00;100605.47;105987;1254;59640;-78
2023/12/14 09:45:14;;;;;;;10.50;6.40;;;;;;;0.10;100.00;100600.13;106056;1254;73034;-75
2023/12/14 09:47:41;;;;;;;8.40;6.30;;;;;;;0.10;100.00;100587.39;105740;1257;62881;-77
2023/12/14 09:50:09;;;;;;;7.10;4.70;;;;;;;0.12;100.00;100581.34;106121;1251;71426;-79
2023/12/14 09:52:36;;;;;;;8.30;4.80;;;;;;;0.13;100.00;100566.17;106105;1254;60055;-75
2023/12/14 09:55:04;;;;;;;8.30;5.60;;;;;;;0.16;100.00;100557.02;105937;1254;59591;-75
2023/12/14 09:57:32;;;;;;;6.80;5.40;;;;;;;0.19;100.00;100554.05;106010;1251;74440;-78
2023/12/14 10:00:00;;;;;;;9.30;6.10;;;;;;;0.20;100.00;100545.44;106074;1255;63706;-74
2023/12/14 10:02:27;;;;;;;9.70;6.00;;;;;;;0.23;100.00;100530.11;105982;1252;72516;-73
2023/12/14 10:04:54;;;;;;;10.60;6.10;;;;;;;0.24;100.00;100523.36;105955;1254;59722;-74
2023/12/14 10:07:22;;;;;;;8.70;6.90;;;;;;;0.26;100.00;100510.24;105886;1251;60634;-76
2023/12/14 10:09:50;;;;;;;7.30;5.40;;;;;;;0.29;100.00;100508.30;105933;1254;73038;-75
2023/12/14 10:12:17;;;;;;;8.40;5.40;;;;;;;0.32;100.00;100497.74;105851;1257;63977;-75
2023/12/14 10:14:44;;;;;;;7.80;6.00;;;;;;;0.35;100.00;100489.62;105894;1254;72656;-75
2023/12/14 10:17:21;;;;;;;7.40;5.80;;;;;;;0.38;100.00;100483.01;105608;1260;62144;-75
2023/12/14 10:19:48;;;;;;;7.80;5.40;;;;;;;0.43;100.00;100475.19;106021;1251;60273;-74
2023/12/14 10:22:17;;;;;;;7.40;6.40;;;;;;;0.45;100.00;100458.80;105991;1254;73266;-75
2023/12/14 10:24:46;;;;;;;10.70;6.10;;;;;;;0.48;100.00;100452.89;106024;1250;63560;-76
2023/12/14 10:27:16;;;;;;;9.10;6.10;;;;;;;0.51;100.00;100442.17;106036;1254;72641;-78
2023/12/14 10:29:45;;;;;;;8.40;6.80;;;;;;;0.55;100.00;100436.42;105967;1254;61317;-79
2023/12/14 10:32:12;;;;;;;8.10;5.90;;;;;;;0.57;100.00;100428.80;105887;1257;59608;-79
2023/12/14 10:34:40;;;;;;;8.20;6.30;;;;;;;0.59;100.00;100430.64;105951;1251;73045;-75
2023/12/14 10:37:08;;;;;;;8.60;6.80;;;;;;;0.61;100.00;100424.59;106061;1255;63714;-75
2023/12/14 10:39:36;;;;;;;7.30;6.50;;;;;;;0.62;100.00;100422.49;106087;1254;73139;-77
2023/12/14 10:42:04;;;;;;;11.30;7.70;;;;;;;0.64;100.00;100411.45;105715;1252;61545;-75
2023/12/14 10:44:45;;;;;;;9.70;7.30;;;;;;;0.67;100.00;100409.98;105845;1250;59883;-76
2023/12/14 10:47:36;;;;;;;10.00;7.00;;;;;;;0.69;100.00;100405.98;105971;1251;73395;-77
2023/12/14 10:50:05;;;;;;;8.50;7.20;;;;;;;0.73;100.00;100406.06;105974;1251;63046;-77
2023/12/14 10:52:35;;;;;;;7.90;6.10;;;;;;;0.76;100.00;100415.64;105871;1257;73764;-77
2023/12/14 10:55:10;;;;;;;7.40;6.30;;;;;;;0.80;100.00;100405.56;106770;1250;61110;-76
2023/12/14 10:57:38;;;;;;;9.70;6.30;;;;;;;0.81;100.00;100414.31;106100;1251;59608;-77
2023/12/14 11:00:10;;;;;;;7.90;6.50;;;;;;;0.83;100.00;100414.44;106031;1254;72171;-74
2023/12/14 11:02:44;;;;;;;9.20;7.10;;;;;;;0.83;100.00;100407.05;105868;1255;62625;-74
2023/12/14 11:05:15;;;;;;;6.70;6.00;;;;;;;0.83;100.00;100396.56;105802;1257;72566;-77